createdAt,value
2023-03-17T00:01:12.114Z,100512.66
2023-03-17T00:03:41.850Z,100512.03
2023-03-17T00:06:21.584Z,100513.09
2023-03-17T00:08:49.252Z,100513.09
2023-03-17T00:11:17.295Z,100513.47
2023-03-17T00:13:45.018Z,100507.63
2023-03-17T00:16:16.192Z,100508.88
2023-03-17T00:18:44.726Z,100514.81
2023-03-17T00:21:16.880Z,100511.25
2023-03-17T00:23:45.968Z,100506.81
2023-03-17T00:26:14.273Z,100505.97
2023-03-17T00:28:43.300Z,100506.22
2023-03-17T00:31:40.576Z,100506.22
2023-03-17T00:34:12.217Z,100512.28
2023-03-17T00:36:40.622Z,100495.72
2023-03-17T00:41:40.503Z,100504.38
2023-03-17T00:44:08.208Z,100503.72
2023-03-17T00:46:36.173Z,100492.81
2023-03-17T00:49:11.106Z,100494.94
2023-03-17T00:51:40.744Z,100489.72
2023-03-17T00:54:10.348Z,100487.81
2023-03-17T00:56:38.530Z,100479.81
2023-03-17T00:59:09.445Z,100479.62
2023-03-17T01:01:37.507Z,100475.19
2023-03-17T01:04:05.086Z,100485.28
2023-03-17T01:06:32.685Z,100488.25
2023-03-17T01:09:00.457Z,100486.56
2023-03-17T01:11:27.910Z,100483.00
2023-03-17T01:13:55.732Z,100489.50
2023-03-17T01:16:23.533Z,100485.94
2023-03-17T01:18:51.136Z,100487.00
2023-03-17T01:21:18.583Z,100494.13
2023-03-17T01:23:47.387Z,100488.91
2023-03-17T01:26:14.828Z,100496.25
2023-03-17T01:28:42.507Z,100486.59
2023-03-17T01:31:10.439Z,100493.09
2023-03-17T01:33:37.956Z,100493.94
2023-03-17T01:36:05.608Z,100493.34
2023-03-17T01:38:33.362Z,100486.22
2023-03-17T01:41:01.310Z,100491.66
2023-03-17T01:43:29.624Z,100489.97
2023-03-17T01:46:20.787Z,100488.53
2023-03-17T01:49:05.593Z,100490.19
2023-03-17T01:52:21.887Z,100492.31
2023-03-17T01:54:59.145Z,100496.72
2023-03-17T01:57:45.652Z,100489.78
2023-03-17T02:00:18.170Z,100483.72
2023-03-17T02:02:48.006Z,100471.16
2023-03-17T02:05:17.939Z,100465.88
2023-03-17T02:07:46.253Z,100471.56
2023-03-17T02:10:14.395Z,100485.22
2023-03-17T02:12:42.415Z,100488.16
2023-03-17T02:15:10.680Z,100495.53
2023-03-17T02:17:39.518Z,100502.84
2023-03-17T02:20:16.004Z,100513.75
2023-03-17T02:22:50.287Z,100515.44
2023-03-17T02:25:19.846Z,100517.53
2023-03-17T02:27:49.408Z,100518.59
2023-03-17T02:30:21.152Z,100523.84
2023-03-17T02:32:48.912Z,100531.41
2023-03-17T02:35:17.070Z,100534.97
2023-03-17T02:37:46.112Z,100529.75
2023-03-17T02:40:14.392Z,100533.50
2023-03-17T02:42:42.035Z,100533.50
2023-03-17T02:45:11.626Z,100535.37
2023-03-17T02:47:39.441Z,100523.62
2023-03-17T02:50:07.485Z,100518.41
2023-03-17T02:52:34.931Z,100514.84
2023-03-17T02:55:02.636Z,100509.59
2023-03-17T02:57:30.051Z,100517.16
2023-03-17T02:59:57.497Z,100515.28
2023-03-17T03:02:25.221Z,100514.63
2023-03-17T03:04:53.411Z,100518.37
2023-03-17T03:07:20.822Z,100529.28
2023-03-17T03:09:48.705Z,100528.47
2023-03-17T03:12:16.252Z,100525.13
2023-03-17T03:14:43.785Z,100522.16
2023-03-17T03:17:11.599Z,100522.41
2023-03-17T03:19:39.433Z,100518.00
2023-03-17T03:22:06.951Z,100509.19
2023-03-17T03:24:34.720Z,100515.47
2023-03-17T03:27:02.215Z,100521.16
2023-03-17T03:29:29.686Z,100512.13
2023-03-17T03:31:57.399Z,100507.75
2023-03-17T03:34:24.848Z,100515.09
2023-03-17T03:36:52.322Z,100512.34
2023-03-17T03:39:20.052Z,100504.38
2023-03-17T03:41:47.476Z,100511.94
2023-03-17T03:44:14.893Z,100515.50
2023-03-17T03:46:42.620Z,100511.72
2023-03-17T03:49:10.067Z,100513.62
2023-03-17T03:51:37.476Z,100513.84
2023-03-17T03:54:05.221Z,100518.47
2023-03-17T03:56:32.755Z,100510.28
2023-03-17T03:59:00.340Z,100505.00
2023-03-17T04:01:28.373Z,100508.81
2023-03-17T04:03:56.097Z,100501.69
2023-03-17T04:06:23.506Z,100503.56
2023-03-17T04:08:50.935Z,100501.03
2023-03-17T04:11:18.652Z,100500.00
2023-03-17T04:13:46.301Z,100495.38
2023-03-17T04:16:13.794Z,100500.22
2023-03-17T04:18:41.582Z,100501.03
2023-03-17T04:21:09.176Z,100493.91
2023-03-17T04:23:36.647Z,100493.31
2023-03-17T04:26:04.454Z,100495.41
2023-03-17T04:28:32.026Z,100498.97
2023-03-17T04:30:59.469Z,100500.84
2023-03-17T04:33:27.196Z,100503.78
2023-03-17T04:35:54.736Z,100492.88
2023-03-17T04:38:22.247Z,100504.63
2023-03-17T04:40:51.052Z,100504.84
2023-03-17T04:43:18.500Z,100500.47
2023-03-17T04:45:46.084Z,100505.69
2023-03-17T04:48:13.793Z,100507.59
2023-03-17T04:50:42.408Z,100509.47
2023-03-17T04:53:10.058Z,100511.37
2023-03-17T04:55:37.828Z,100514.94
2023-03-17T04:58:05.363Z,100521.41
2023-03-17T05:00:38.626Z,100522.28
2023-03-17T05:03:25.700Z,100529.59
2023-03-17T05:05:54.069Z,100527.91
2023-03-17T05:08:21.861Z,100517.22
2023-03-17T05:10:49.344Z,100522.91
2023-03-17T05:13:16.775Z,100525.22
2023-03-17T05:15:47.054Z,100530.25
2023-03-17T05:18:15.242Z,100525.84
2023-03-17T05:20:42.642Z,100531.50
2023-03-17T05:23:10.386Z,100531.94
2023-03-17T05:25:37.883Z,100538.63
2023-03-17T05:28:05.461Z,100537.19
2023-03-17T05:30:33.869Z,100531.94
2023-03-17T05:33:01.675Z,100529.44
2023-03-17T05:35:29.128Z,100532.37
2023-03-17T05:37:56.854Z,100536.16
2023-03-17T05:40:24.321Z,100541.78
2023-03-17T05:42:51.781Z,100546.41
2023-03-17T05:45:19.480Z,100540.34
2023-03-17T05:47:47.479Z,100533.19
2023-03-17T05:50:14.967Z,100526.91
2023-03-17T05:52:43.392Z,100533.41
2023-03-17T05:55:10.869Z,100525.47
2023-03-17T05:57:38.628Z,100529.25
2023-03-17T06:00:07.489Z,100533.00
2023-03-17T06:02:35.751Z,100531.09
2023-03-17T06:05:03.673Z,100534.06
2023-03-17T06:07:44.586Z,100526.94
2023-03-17T06:10:18.402Z,100525.25
2023-03-17T06:12:46.196Z,100526.09
2023-03-17T06:15:13.626Z,100528.16
2023-03-17T06:17:41.703Z,100536.31
2023-03-17T06:20:09.511Z,100536.53
2023-03-17T06:22:37.370Z,100536.75
2023-03-17T06:25:05.541Z,100534.88
2023-03-17T06:27:33.020Z,100542.41
2023-03-17T06:30:00.446Z,100543.44
2023-03-17T06:32:28.367Z,100547.22
2023-03-17T06:34:55.895Z,100552.91
2023-03-17T06:37:23.388Z,100556.66
2023-03-17T06:39:51.214Z,100552.25
2023-03-17T06:42:19.214Z,100565.03
2023-03-17T06:44:46.664Z,100561.47
2023-03-17T06:47:14.764Z,100565.44
2023-03-17T06:49:42.228Z,100565.44
2023-03-17T06:52:09.731Z,100569.22
2023-03-17T06:54:37.620Z,100572.78
2023-03-17T06:57:05.042Z,100571.31
2023-03-17T06:59:32.583Z,100570.50
2023-03-17T07:02:00.315Z,100573.22
2023-03-17T07:04:27.891Z,100574.25
2023-03-17T07:06:55.370Z,100570.91
2023-03-17T07:09:23.236Z,100574.66
2023-03-17T07:11:50.693Z,100580.13
2023-03-17T07:14:18.699Z,100573.00
2023-03-17T07:16:47.461Z,100590.19
2023-03-17T07:19:14.928Z,100591.00
2023-03-17T07:21:42.486Z,100588.28
2023-03-17T07:24:11.243Z,100585.34
2023-03-17T07:26:38.769Z,100588.06
2023-03-17T07:29:06.485Z,100590.56
2023-03-17T07:31:34.271Z,100584.09
2023-03-17T07:34:02.114Z,100588.72
2023-03-17T07:36:29.711Z,100591.22
2023-03-17T07:38:57.414Z,100585.78
2023-03-17T07:41:25.041Z,100598.34
2023-03-17T07:43:52.477Z,100601.91
2023-03-17T07:46:20.253Z,100602.75
2023-03-17T07:48:48.285Z,100602.75
2023-03-17T07:51:16.889Z,100600.84
2023-03-17T07:53:46.223Z,100609.87
2023-03-17T07:56:13.942Z,100602.56
2023-03-17T07:58:41.747Z,100607.78
2023-03-17T08:01:09.895Z,100605.91
2023-03-17T08:03:40.623Z,100608.41
2023-03-17T08:06:08.781Z,100602.94
2023-03-17T08:08:36.988Z,100592.06
2023-03-17T08:11:05.320Z,100598.16
2023-03-17T08:13:32.814Z,100593.53
2023-03-17T08:16:00.698Z,100590.81
2023-03-17T08:18:28.463Z,100593.31
2023-03-17T08:20:55.907Z,100595.00
2023-03-17T08:23:23.339Z,100585.97
2023-03-17T08:25:55.722Z,100584.97
2023-03-17T08:28:23.158Z,100579.50
2023-03-17T08:30:51.051Z,100591.25
2023-03-17T08:33:18.560Z,100584.75
2023-03-17T08:35:46.143Z,100588.31
2023-03-17T08:38:13.882Z,100591.84
2023-03-17T08:40:41.362Z,100590.81
2023-03-17T08:43:08.840Z,100588.09
2023-03-17T08:45:36.539Z,100582.63
2023-03-17T08:48:04.226Z,100583.50
2023-03-17T08:50:31.930Z,100583.50
2023-03-17T08:52:59.895Z,100583.50
2023-03-17T08:55:27.496Z,100585.81
2023-03-17T08:57:54.942Z,100573.25
2023-03-17T09:00:22.876Z,100579.53
2023-03-17T09:02:50.466Z,100587.50
2023-03-17T09:05:18.341Z,100591.91
2023-03-17T09:07:46.206Z,100592.75
2023-03-17T09:10:14.859Z,100584.56
2023-03-17T09:12:42.879Z,100582.69
2023-03-17T09:15:12.023Z,100587.91
2023-03-17T09:17:39.591Z,100586.03
2023-03-17T09:20:07.787Z,100587.69
2023-03-17T09:22:35.552Z,100568.44
2023-03-17T09:25:03.370Z,100568.22
2023-03-17T09:27:30.839Z,100564.44
2023-03-17T09:29:58.592Z,100570.94
2023-03-17T09:32:26.359Z,100567.16
2023-03-17T09:34:53.841Z,100573.44
2023-03-17T09:37:21.915Z,100569.88
2023-03-17T09:39:49.472Z,100563.59
2023-03-17T09:42:36.345Z,100566.53
2023-03-17T09:45:13.393Z,100563.59
2023-03-17T09:47:52.599Z,100560.25
2023-03-17T09:50:28.903Z,100550.41
2023-03-17T09:52:57.306Z,100549.97
2023-03-17T09:55:30.311Z,100557.53
2023-03-17T09:57:58.855Z,100555.00
2023-03-17T10:00:29.358Z,100544.97
2023-03-17T10:02:57.976Z,100550.41
2023-03-17T10:05:27.925Z,100542.25
2023-03-17T10:07:58.384Z,100545.16
2023-03-17T10:10:30.506Z,100538.66
2023-03-17T10:13:04.143Z,100548.09
2023-03-17T10:15:36.512Z,100543.47
2023-03-17T10:18:12.720Z,100550.00
2023-03-17T10:20:48.668Z,100548.09
2023-03-17T10:23:19.275Z,100532.81
2023-03-17T10:25:48.278Z,100527.53
2023-03-17T10:28:24.939Z,100524.00
2023-03-17T10:30:53.340Z,100519.38
2023-03-17T10:33:21.321Z,100523.38
2023-03-17T10:35:48.857Z,100514.38
2023-03-17T10:38:22.546Z,100518.13
2023-03-17T10:40:58.126Z,100515.37
2023-03-17T10:43:30.747Z,100508.25
2023-03-17T10:46:00.133Z,100508.47
2023-03-17T10:48:28.795Z,100508.47
2023-03-17T10:50:58.263Z,100510.97
2023-03-17T10:53:29.755Z,100510.12
2023-03-17T10:56:08.468Z,100503.66
2023-03-17T10:58:49.117Z,100503.88
2023-03-17T11:01:20.196Z,100503.22
2023-03-17T11:03:47.933Z,100503.22
2023-03-17T11:06:20.385Z,100492.47
2023-03-17T11:08:49.663Z,100498.31
2023-03-17T11:11:24.687Z,100479.41
2023-03-17T11:14:02.111Z,100476.50
2023-03-17T11:16:29.690Z,100464.94
2023-03-17T11:18:58.360Z,100462.03
2023-03-17T11:21:50.764Z,100465.97
2023-03-17T11:24:26.069Z,100471.00
2023-03-17T11:26:58.274Z,100462.84
2023-03-17T11:30:10.327Z,100467.69
2023-03-17T11:33:02.655Z,100472.94
2023-03-17T11:35:55.046Z,100463.09
2023-03-17T11:38:33.561Z,100453.87
2023-03-17T11:41:05.227Z,100430.84
2023-03-17T11:43:45.399Z,100426.03
2023-03-17T11:46:16.989Z,100419.09
2023-03-17T11:48:56.185Z,100426.91
2023-03-17T11:51:39.250Z,100426.06
2023-03-17T11:54:24.898Z,100417.47
2023-03-17T11:57:01.256Z,100423.78
2023-03-17T11:59:46.976Z,100416.06
2023-03-17T12:02:42.707Z,100404.72
2023-03-17T12:05:15.797Z,100404.75
2023-03-17T12:08:02.478Z,100397.44
2023-03-17T12:10:40.705Z,100390.50
2023-03-17T12:13:35.565Z,100379.41
2023-03-17T12:16:15.838Z,100379.00
2023-03-17T12:19:19.778Z,100389.69
2023-03-17T12:22:03.809Z,100384.47
2023-03-17T12:24:43.831Z,100383.22
2023-03-17T12:27:28.568Z,100377.34
2023-03-17T12:30:01.219Z,100379.66
2023-03-17T12:32:49.490Z,100368.97
2023-03-17T12:35:34.920Z,100362.69
2023-03-17T12:38:09.056Z,100361.22
2023-03-17T12:41:02.273Z,100359.78
2023-03-17T12:43:59.070Z,100362.50
2023-03-17T12:46:47.840Z,100357.25
2023-03-17T12:49:46.085Z,100352.25
2023-03-17T12:52:16.798Z,100350.75
2023-03-17T12:54:45.590Z,100353.06
2023-03-17T12:57:21.356Z,100345.94
2023-03-17T12:59:50.319Z,100340.50
2023-03-17T13:02:27.678Z,100337.38
2023-03-17T13:04:59.837Z,100341.38
2023-03-17T13:07:33.214Z,100335.91
2023-03-17T13:10:00.794Z,100333.41
2023-03-17T13:12:44.624Z,100329.22
2023-03-17T13:15:30.900Z,100335.72
2023-03-17T13:18:18.566Z,100336.78
2023-03-17T13:21:11.409Z,100332.53
2023-03-17T13:23:53.070Z,100322.72
2023-03-17T13:26:22.371Z,100325.66
2023-03-17T13:28:50.984Z,100326.06
2023-03-17T13:31:27.521Z,100313.50
2023-03-17T13:33:56.657Z,100311.81
2023-03-17T13:36:36.446Z,100309.09
2023-03-17T13:39:35.564Z,100317.47
2023-03-17T13:42:18.676Z,100328.34
2023-03-17T13:45:13.637Z,100313.31
2023-03-17T13:47:43.957Z,100302.41
2023-03-17T13:50:16.934Z,100308.06
2023-03-17T13:52:49.798Z,100302.63
2023-03-17T13:55:17.393Z,100304.50
2023-03-17T13:58:12.193Z,100294.66
2023-03-17T14:00:47.618Z,100293.63
2023-03-17T14:03:24.829Z,100297.38
2023-03-17T14:05:52.715Z,100295.72
2023-03-17T14:08:33.801Z,100281.47
2023-03-17T14:11:03.189Z,100286.91
2023-03-17T14:13:32.243Z,100280.66
2023-03-17T14:16:10.138Z,100276.25
2023-03-17T14:18:43.237Z,100267.03
2023-03-17T14:21:21.085Z,100285.25
2023-03-17T14:24:00.582Z,100267.25
2023-03-17T14:26:29.282Z,100264.53
2023-03-17T14:29:03.360Z,100253.66
2023-03-17T14:31:31.023Z,100256.38
2023-03-17T14:33:59.623Z,100269.12
2023-03-17T14:36:27.841Z,100258.66
2023-03-17T14:38:56.264Z,100271.22
2023-03-17T14:41:27.753Z,100263.84
2023-03-17T14:43:59.017Z,100258.16
2023-03-17T14:46:27.908Z,100255.19
2023-03-17T14:49:02.749Z,100259.53
2023-03-17T14:51:33.422Z,100252.19
2023-03-17T14:54:01.465Z,100242.25
2023-03-17T14:56:35.435Z,100234.00
2023-03-17T14:59:17.296Z,100226.16
2023-03-17T15:01:47.586Z,100230.09
2023-03-17T15:04:20.364Z,100226.87
2023-03-17T15:06:58.427Z,100224.06
2023-03-17T15:09:26.486Z,100215.88
2023-03-17T15:12:14.947Z,100221.50
2023-03-17T15:14:42.667Z,100214.53
2023-03-17T15:17:18.520Z,100224.75
2023-03-17T15:19:47.956Z,100218.88
2023-03-17T15:22:25.890Z,100216.97
2023-03-17T15:25:16.740Z,100191.16
2023-03-17T15:27:44.957Z,100187.34
2023-03-17T15:30:13.362Z,100186.75
2023-03-17T15:32:40.914Z,100176.28
2023-03-17T15:35:11.827Z,100186.94
2023-03-17T15:37:39.580Z,100186.34
2023-03-17T15:40:09.385Z,100194.75
2023-03-17T15:42:37.950Z,100177.56
2023-03-17T15:45:06.780Z,100178.00
2023-03-17T15:47:36.743Z,100177.38
2023-03-17T15:50:21.909Z,100182.25
2023-03-17T15:52:49.982Z,100172.41
2023-03-17T15:55:21.388Z,100174.50
2023-03-17T15:57:55.092Z,100185.03
2023-03-17T16:00:24.418Z,100188.81
2023-03-17T16:02:54.047Z,100190.91
2023-03-17T16:05:29.809Z,100165.53
2023-03-17T16:07:57.843Z,100172.66
2023-03-17T16:10:26.860Z,100173.72
2023-03-17T16:12:54.451Z,100173.09
2023-03-17T16:15:30.922Z,100177.94
2023-03-17T16:17:59.636Z,100175.41
2023-03-17T16:20:31.421Z,100178.59
2023-03-17T16:23:01.248Z,100172.75
2023-03-17T16:25:30.914Z,100167.75
2023-03-17T16:27:59.546Z,100170.53
2023-03-17T16:30:32.154Z,100164.09
2023-03-17T16:33:02.247Z,100174.53
2023-03-17T16:35:29.806Z,100177.72
2023-03-17T16:37:57.328Z,100172.09
2023-03-17T16:40:27.158Z,100183.00
2023-03-17T16:42:54.790Z,100191.38
2023-03-17T16:45:27.976Z,100193.28
2023-03-17T16:47:56.351Z,100194.34
2023-03-17T16:50:25.268Z,100193.94
2023-03-17T16:52:52.822Z,100187.06
2023-03-17T16:55:21.057Z,100190.22
2023-03-17T16:57:50.867Z,100194.81
2023-03-17T17:00:23.232Z,100194.41
2023-03-17T17:02:51.762Z,100195.56
2023-03-17T17:05:22.069Z,100195.47
2023-03-17T17:07:49.733Z,100196.19
2023-03-17T17:10:18.782Z,100200.00
2023-03-17T17:12:46.683Z,100198.84
2023-03-17T17:15:15.364Z,100191.91
2023-03-17T17:17:55.986Z,100195.16
2023-03-17T17:20:29.396Z,100201.56
2023-03-17T17:22:58.188Z,100191.38
2023-03-17T17:25:27.077Z,100185.03
2023-03-17T17:27:55.239Z,100185.81
2023-03-17T17:30:28.217Z,100192.72
2023-03-17T17:32:57.730Z,100185.75
2023-03-17T17:35:27.191Z,100193.25
2023-03-17T17:37:55.413Z,100193.84
2023-03-17T17:40:25.339Z,100190.88
2023-03-17T17:42:54.745Z,100188.16
2023-03-17T17:45:24.063Z,100188.16
2023-03-17T17:47:52.549Z,100187.09
2023-03-17T17:50:27.689Z,100175.31
2023-03-17T17:53:02.243Z,100188.38
2023-03-17T17:55:30.868Z,100182.94
2023-03-17T17:57:59.929Z,100196.81
2023-03-17T18:00:29.362Z,100189.91
2023-03-17T18:02:59.220Z,100191.56
2023-03-17T18:05:27.629Z,100188.25
2023-03-17T18:07:56.060Z,100184.91
2023-03-17T18:10:26.368Z,100190.00
2023-03-17T18:12:56.360Z,100195.66
2023-03-17T18:15:26.092Z,100196.09
2023-03-17T18:17:54.292Z,100195.47
2023-03-17T18:20:23.345Z,100196.78
2023-03-17T18:22:52.416Z,100191.53
2023-03-17T18:25:21.052Z,100194.75
2023-03-17T18:27:48.878Z,100194.34
2023-03-17T18:30:28.905Z,100189.34
2023-03-17T18:33:09.959Z,100196.69
2023-03-17T18:35:41.849Z,100196.09
2023-03-17T18:38:10.407Z,100215.41
2023-03-17T18:40:40.107Z,100196.78
2023-03-17T18:43:09.033Z,100197.00
2023-03-17T18:45:40.850Z,100200.78
2023-03-17T18:48:09.408Z,100189.28
2023-03-17T18:50:38.377Z,100200.19
2023-03-17T18:53:07.689Z,100196.84
2023-03-17T18:55:39.589Z,100200.44
2023-03-17T18:58:09.242Z,100202.28
2023-03-17T19:00:38.068Z,100200.63
2023-03-17T19:03:06.781Z,100194.28
2023-03-17T19:05:39.040Z,100193.94
2023-03-17T19:08:08.222Z,100198.19
2023-03-17T19:10:37.561Z,100200.91
2023-03-17T19:13:10.200Z,100191.06
2023-03-17T19:15:39.407Z,100192.38
2023-03-17T19:18:08.554Z,100191.75
2023-03-17T19:20:37.693Z,100195.53
2023-03-17T19:23:10.216Z,100193.03
2023-03-17T19:25:38.728Z,100183.78
2023-03-17T19:28:07.837Z,100191.59
2023-03-17T19:30:36.483Z,100189.09
2023-03-17T19:33:06.687Z,100187.03
2023-03-17T19:35:43.819Z,100180.94
2023-03-17T19:38:11.727Z,100181.19
2023-03-17T19:40:42.459Z,100179.25
2023-03-17T19:43:12.617Z,100177.62
2023-03-17T19:45:43.616Z,100182.00
2023-03-17T19:48:12.237Z,100181.72
2023-03-17T19:50:46.399Z,100187.75
2023-03-17T19:53:16.260Z,100180.25
2023-03-17T19:55:44.835Z,100170.31
2023-03-17T19:58:13.680Z,100169.56
2023-03-17T20:00:43.511Z,100169.25
2023-03-17T20:03:13.477Z,100162.22
2023-03-17T20:05:42.006Z,100157.75
2023-03-17T20:08:10.731Z,100160.38
2023-03-17T20:10:39.863Z,100156.13
2023-03-17T20:13:09.803Z,100152.97
2023-03-17T20:15:40.148Z,100151.19
2023-03-17T20:18:09.122Z,100152.84
2023-03-17T20:20:38.273Z,100150.72
2023-03-17T20:23:07.700Z,100152.16
2023-03-17T20:25:37.711Z,100155.84
2023-03-17T20:28:06.451Z,100154.09
2023-03-17T20:30:41.235Z,100153.19
2023-03-17T20:33:12.705Z,100157.47
2023-03-17T20:35:43.472Z,100154.66
2023-03-17T20:38:12.892Z,100149.09
2023-03-17T20:40:42.401Z,100155.06
2023-03-17T20:43:10.759Z,100158.53
2023-03-17T20:45:42.146Z,100151.28
2023-03-17T20:48:11.605Z,100152.25
2023-03-17T20:50:41.513Z,100141.81
2023-03-17T20:53:10.757Z,100141.44
2023-03-17T20:55:39.604Z,100141.81
2023-03-17T20:58:12.188Z,100140.00
2023-03-17T21:00:41.105Z,100142.03
2023-03-17T21:03:10.373Z,100143.22
2023-03-17T21:05:38.428Z,100139.53
2023-03-17T21:08:07.487Z,100131.09
2023-03-17T21:10:36.091Z,100136.34
2023-03-17T21:13:04.705Z,100134.69
2023-03-17T21:15:33.339Z,100130.88
2023-03-17T21:18:02.706Z,100127.28
2023-03-17T21:20:31.156Z,100126.69
2023-03-17T21:23:00.470Z,100129.41
2023-03-17T21:25:28.336Z,100126.56
2023-03-17T21:27:56.670Z,100123.00
2023-03-17T21:30:24.452Z,100127.06
2023-03-17T21:32:53.769Z,100128.34
2023-03-17T21:35:24.611Z,100124.44
2023-03-17T21:37:53.619Z,100132.75
2023-03-17T21:40:24.030Z,100128.72
2023-03-17T21:42:54.235Z,100131.56
2023-03-17T21:45:22.085Z,100123.81
2023-03-17T21:47:49.923Z,100130.62
2023-03-17T21:50:19.310Z,100138.44
2023-03-17T21:52:47.209Z,100129.06
2023-03-17T21:55:15.779Z,100130.34
2023-03-17T21:57:43.581Z,100128.31
2023-03-17T22:00:11.822Z,100129.63
2023-03-17T22:02:41.809Z,100126.53
2023-03-17T22:05:10.464Z,100131.63
2023-03-17T22:07:41.064Z,100132.69
2023-03-17T22:10:09.114Z,100135.31
2023-03-17T22:12:37.163Z,100128.59
2023-03-17T22:15:05.234Z,100132.88
2023-03-17T22:17:32.691Z,100136.09
2023-03-17T22:20:00.424Z,100140.94
2023-03-17T22:22:28.805Z,100131.53
2023-03-17T22:24:56.433Z,100134.50
2023-03-17T22:27:24.450Z,100127.84
2023-03-17T22:29:52.622Z,100127.47
2023-03-17T22:32:20.058Z,100127.12
2023-03-17T22:34:48.285Z,100130.31
2023-03-17T22:37:15.722Z,100128.84
2023-03-17T22:39:43.226Z,100123.03
2023-03-17T22:42:11.487Z,100124.31
2023-03-17T22:44:39.302Z,100128.37
2023-03-17T22:47:06.776Z,100121.69
2023-03-17T22:49:34.494Z,100121.91
2023-03-17T22:52:01.900Z,100122.41
2023-03-17T22:54:29.323Z,100114.66
2023-03-17T22:56:57.051Z,100121.41
2023-03-17T22:59:24.574Z,100113.44
2023-03-17T23:01:51.988Z,100116.88
2023-03-17T23:04:20.016Z,100123.62
2023-03-17T23:06:47.491Z,100116.94
2023-03-17T23:09:15.089Z,100115.28
2023-03-17T23:11:42.811Z,100115.72
2023-03-17T23:14:11.387Z,100110.50
2023-03-17T23:16:39.048Z,100117.81
2023-03-17T23:19:06.788Z,100115.56
2023-03-17T23:21:36.309Z,100118.75
2023-03-17T23:24:06.993Z,100113.75
2023-03-17T23:26:36.912Z,100119.81
2023-03-17T23:29:05.535Z,100112.91
2023-03-17T23:31:34.105Z,100117.78
2023-03-17T23:34:01.800Z,100114.44
2023-03-17T23:36:29.391Z,100116.56
2023-03-17T23:38:56.879Z,100105.06
2023-03-17T23:41:24.629Z,100103.59
2023-03-17T23:43:52.224Z,100105.75
2023-03-17T23:46:20.690Z,100099.66
2023-03-17T23:48:49.151Z,100108.31
2023-03-17T23:51:17.094Z,100110.44
2023-03-17T23:53:45.329Z,100117.78
2023-03-17T23:56:13.150Z,100113.38
2023-03-17T23:58:42.451Z,100105.66
